Time;durP1;ratioP1;P1;durP2;ratioP2;P2;SDS_P1;SDS_P2;PMS_P1;PMS_P2;Temp;Humidity;BMP_temperature;BMP_pressure;BME280_temperature;BME280_humidity;BME280_pressure;Samples;Min_cycle;Max_cycle;Signal;HPM_P1;HPM_P2
2022/02/14 00:02:22;;;;;;;13.05;4.68;;;;;;;;;;5104291;28;20099;-61
2022/02/14 00:04:48;;;;;;;8.32;3.95;;;;;;;;;;5102068;28;20051;-61
2022/02/14 00:07:15;;;;;;;7.63;4.30;;;;;;;;;;5085125;28;20463;-61
2022/02/14 00:09:41;;;;;;;7.47;3.92;;;;;;;;;;5082206;28;20059;-62
2022/02/14 00:12:07;;;;;;;10.68;4.38;;;;;;;;;;5083929;28;20053;-61
2022/02/14 00:14:33;;;;;;;9.20;3.80;;;;;;;;;;5083963;28;20068;-62
2022/02/14 00:17:00;;;;;;;6.97;4.00;;;;;;;;;;5098377;28;20482;-62
2022/02/14 00:19:26;;;;;;;8.05;4.07;;;;;;;;;;5083723;28;20037;-61
2022/02/14 00:21:52;;;;;;;10.13;4.00;;;;;;;;;;5083216;28;20053;-61
2022/02/14 00:24:18;;;;;;;8.75;3.75;;;;;;;;;;5083615;28;20051;-61
2022/02/14 00:26:44;;;;;;;6.70;3.40;;;;;;;;;;5084411;28;20048;-61
2022/02/14 00:29:13;;;;;;;14.30;3.95;;;;;;;;;;5083835;28;20053;-62
2022/02/14 00:31:39;;;;;;;9.93;4.30;;;;;;;;;;5083907;28;20044;-61
2022/02/14 00:34:05;;;;;;;13.25;3.97;;;;;;;;;;5082470;28;20507;-61
2022/02/14 00:36:32;;;;;;;11.25;3.88;;;;;;;;;;5088238;28;20041;-61
2022/02/14 00:38:58;;;;;;;7.60;3.47;;;;;;;;;;5082236;28;20100;-61
2022/02/14 00:41:24;;;;;;;9.02;3.40;;;;;;;;;;5083496;28;20041;-61
2022/02/14 00:43:50;;;;;;;8.88;3.90;;;;;;;;;;5083304;28;20048;-61
2022/02/14 00:46:16;;;;;;;8.25;3.50;;;;;;;;;;5083965;28;20049;-62
2022/02/14 00:48:45;;;;;;;20.70;4.75;;;;;;;;;;5083510;28;20055;-62
2022/02/14 00:51:11;;;;;;;8.70;3.63;;;;;;;;;;5082854;28;20056;-62
2022/02/14 00:53:37;;;;;;;14.05;4.07;;;;;;;;;;5083459;28;20087;-62
2022/02/14 00:56:03;;;;;;;6.70;3.55;;;;;;;;;;5095574;28;20104;-62
2022/02/14 00:58:29;;;;;;;9.85;3.58;;;;;;;;;;5105093;28;20100;-62
2022/02/14 01:00:55;;;;;;;13.23;3.72;;;;;;;;;;5107719;28;20044;-62
2022/02/14 01:03:21;;;;;;;13.63;4.32;;;;;;;;;;5107498;28;20116;-62
2022/02/14 01:05:48;;;;;;;8.02;3.00;;;;;;;;;;5094967;28;20048;-62
2022/02/14 01:08:14;;;;;;;9.38;3.45;;;;;;;;;;5106367;28;20044;-62
2022/02/14 01:10:40;;;;;;;6.10;3.20;;;;;;;;;;5094514;28;20044;-62
2022/02/14 01:13:06;;;;;;;8.10;3.85;;;;;;;;;;5086977;28;20411;-62
2022/02/14 01:15:32;;;;;;;11.57;3.22;;;;;;;;;;5087013;28;20056;-62
2022/02/14 01:17:59;;;;;;;7.85;3.10;;;;;;;;;;5087115;28;20052;-61
2022/02/14 01:20:25;;;;;;;6.07;3.38;;;;;;;;;;5086819;28;20044;-61
2022/02/14 01:22:51;;;;;;;14.80;4.30;;;;;;;;;;5086155;28;20040;-61
2022/02/14 01:25:17;;;;;;;9.48;3.65;;;;;;;;;;5086425;28;20059;-61
2022/02/14 01:27:43;;;;;;;6.07;3.05;;;;;;;;;;5100118;28;20071;-61
2022/02/14 01:30:10;;;;;;;6.70;3.28;;;;;;;;;;5106963;28;20044;-62
2022/02/14 01:32:36;;;;;;;5.53;3.28;;;;;;;;;;5107037;28;20032;-61
2022/02/14 01:35:03;;;;;;;10.90;3.92;;;;;;;;;;5106888;28;20494;-61
2022/02/14 01:37:31;;;;;;;7.82;3.38;;;;;;;;;;5100743;28;20051;-61
2022/02/14 01:39:57;;;;;;;7.90;3.40;;;;;;;;;;5106453;28;20083;-61
2022/02/14 01:42:23;;;;;;;7.10;3.40;;;;;;;;;;5106369;28;20055;-61
2022/02/14 01:44:50;;;;;;;15.15;3.65;;;;;;;;;;5106488;28;20063;-62
2022/02/14 01:47:20;;;;;;;11.73;3.85;;;;;;;;;;5094817;28;20048;-61
2022/02/14 01:49:47;;;;;;;8.60;3.85;;;;;;;;;;5086164;28;20126;-61
2022/02/14 01:52:13;;;;;;;7.90;3.45;;;;;;;;;;5085516;28;20048;-61
2022/02/14 01:54:41;;;;;;;6.25;3.35;;;;;;;;;;5086047;28;20096;-61
2022/02/14 01:57:08;;;;;;;6.85;3.38;;;;;;;;;;5095619;28;20468;-61
2022/02/14 01:59:34;;;;;;;10.10;4.15;;;;;;;;;;5106166;28;20071;-61
2022/02/14 02:02:01;;;;;;;9.07;2.90;;;;;;;;;;5106197;28;20044;-60
2022/02/14 02:04:28;;;;;;;9.13;3.55;;;;;;;;;;5096950;28;20040;-61
2022/02/14 02:06:54;;;;;;;10.95;3.40;;;;;;;;;;5085150;28;20100;-61
2022/02/14 02:09:20;;;;;;;9.93;3.80;;;;;;;;;;5084537;28;20040;-61
2022/02/14 02:14:31;;;;;;;7.03;3.20;;;;;;;;;;5085827;28;20408;-61
2022/02/14 02:16:57;;;;;;;7.90;3.85;;;;;;;;;;5095685;28;20073;-61
2022/02/14 02:19:23;;;;;;;11.43;3.15;;;;;;;;;;5106486;28;20073;-61
2022/02/14 02:21:50;;;;;;;4.95;3.28;;;;;;;;;;5100014;28;20054;-61
2022/02/14 02:24:19;;;;;;;9.15;4.10;;;;;;;;;;5066801;28;20049;-61
2022/02/14 02:27:05;;;;;;;5.00;3.45;;;;;;;;;;5085435;28;20045;-61
2022/02/14 02:29:32;;;;;;;8.57;3.00;;;;;;;;;;5084240;28;20056;-61
2022/02/14 02:31:58;;;;;;;10.07;3.35;;;;;;;;;;5084803;28;20040;-61
2022/02/14 02:34:24;;;;;;;7.82;3.88;;;;;;;;;;5085432;28;20053;-61
2022/02/14 02:36:55;;;;;;;6.75;3.45;;;;;;;;;;5092794;28;20032;-61
2022/02/14 02:39:22;;;;;;;8.32;3.63;;;;;;;;;;5102455;28;20044;-61
2022/02/14 02:41:48;;;;;;;9.10;3.47;;;;;;;;;;5083693;28;20051;-61
2022/02/14 02:44:15;;;;;;;9.02;3.90;;;;;;;;;;5086087;28;20056;-61
2022/02/14 02:46:42;;;;;;;6.83;3.80;;;;;;;;;;5085088;28;20063;-61
2022/02/14 02:49:09;;;;;;;9.80;3.83;;;;;;;;;;5085130;28;20044;-61
2022/02/14 02:51:39;;;;;;;8.15;3.78;;;;;;;;;;5084253;28;20083;-61
2022/02/14 02:54:06;;;;;;;8.05;3.83;;;;;;;;;;5093196;28;20058;-61
2022/02/14 02:56:33;;;;;;;7.28;3.33;;;;;;;;;;5104801;28;20044;-61
2022/02/14 02:58:59;;;;;;;9.97;3.40;;;;;;;;;;5087176;28;20053;-61
2022/02/14 03:01:25;;;;;;;8.93;2.88;;;;;;;;;;5083647;28;20113;-61
2022/02/14 03:03:52;;;;;;;8.57;3.88;;;;;;;;;;5084509;28;20132;-61
2022/02/14 03:06:19;;;;;;;5.75;3.10;;;;;;;;;;5084193;28;20048;-61
2022/02/14 03:08:45;;;;;;;8.65;3.35;;;;;;;;;;5084968;28;20047;-61
2022/02/14 03:11:11;;;;;;;6.35;3.38;;;;;;;;;;5084373;28;20131;-61
2022/02/14 03:13:37;;;;;;;7.75;3.78;;;;;;;;;;5084991;28;20048;-61
2022/02/14 03:16:04;;;;;;;8.43;3.35;;;;;;;;;;5084407;28;20052;-61
2022/02/14 03:18:30;;;;;;;10.50;3.10;;;;;;;;;;5117087;28;20051;-61
2022/02/14 03:20:56;;;;;;;10.05;3.10;;;;;;;;;;5083988;28;20106;-61
2022/02/14 03:23:22;;;;;;;12.85;3.38;;;;;;;;;;5089534;28;20046;-62
2022/02/14 03:25:48;;;;;;;5.70;3.20;;;;;;;;;;5103399;28;20514;-61
2022/02/14 03:28:14;;;;;;;6.57;2.95;;;;;;;;;;5104612;28;20043;-61
2022/02/14 03:30:40;;;;;;;11.32;3.65;;;;;;;;;;5103641;28;20074;-61
2022/02/14 03:33:06;;;;;;;7.55;3.03;;;;;;;;;;5101474;28;20093;-61
2022/02/14 03:35:32;;;;;;;6.93;3.20;;;;;;;;;;5084162;28;20044;-61
2022/02/14 03:37:59;;;;;;;6.68;3.25;;;;;;;;;;5084415;28;20053;-61
2022/02/14 03:40:26;;;;;;;11.75;4.00;;;;;;;;;;5083202;28;20096;-61
2022/02/14 03:42:52;;;;;;;6.85;2.95;;;;;;;;;;5084091;28;20294;-61
2022/02/14 03:45:18;;;;;;;11.15;3.45;;;;;;;;;;5084242;28;20048;-61
2022/02/14 03:47:44;;;;;;;7.70;2.70;;;;;;;;;;5083885;28;20074;-61
2022/02/14 03:50:10;;;;;;;8.65;2.83;;;;;;;;;;5083977;28;20541;-61
2022/02/14 03:52:37;;;;;;;8.60;2.80;;;;;;;;;;5083950;28;20072;-61
2022/02/14 03:55:03;;;;;;;9.20;3.03;;;;;;;;;;5102088;28;20048;-62
2022/02/14 03:57:29;;;;;;;9.65;2.90;;;;;;;;;;5104291;28;20407;-61
2022/02/14 03:59:55;;;;;;;8.45;2.63;;;;;;;;;;5095906;28;20054;-61
2022/02/14 04:02:21;;;;;;;7.38;3.05;;;;;;;;;;5083770;28;20104;-61
2022/02/14 04:04:47;;;;;;;8.50;2.92;;;;;;;;;;5084107;28;20139;-61
2022/02/14 04:07:13;;;;;;;7.20;2.30;;;;;;;;;;5083601;28;20092;-61
2022/02/14 04:09:40;;;;;;;8.10;2.95;;;;;;;;;;5084083;28;20050;-61
2022/02/14 04:12:06;;;;;;;8.30;2.60;;;;;;;;;;5083702;28;20123;-61
2022/02/14 04:14:32;;;;;;;7.75;3.40;;;;;;;;;;5084377;28;20135;-61
2022/02/14 04:16:58;;;;;;;7.95;3.30;;;;;;;;;;5083942;28;20075;-61
2022/02/14 04:19:24;;;;;;;6.38;2.58;;;;;;;;;;5083829;28;20050;-61
2022/02/14 04:21:50;;;;;;;8.55;3.28;;;;;;;;;;5083309;28;20116;-62
2022/02/14 04:24:16;;;;;;;5.68;2.90;;;;;;;;;;5084598;28;20074;-61
2022/02/14 04:26:42;;;;;;;7.85;3.70;;;;;;;;;;5083467;28;20423;-61
2022/02/14 04:29:08;;;;;;;7.00;2.95;;;;;;;;;;5083833;28;20054;-61
2022/02/14 04:31:34;;;;;;;4.53;2.28;;;;;;;;;;5083428;28;20047;-61
2022/02/14 04:34:01;;;;;;;4.85;2.30;;;;;;;;;;5092639;28;20044;-62
2022/02/14 04:36:27;;;;;;;6.32;2.92;;;;;;;;;;5104512;28;20044;-62
2022/02/14 04:38:53;;;;;;;7.55;2.90;;;;;;;;;;5087237;28;20449;-61
2022/02/14 04:41:19;;;;;;;7.65;2.22;;;;;;;;;;5087072;28;20170;-61
2022/02/14 04:43:45;;;;;;;9.07;3.55;;;;;;;;;;5087158;28;20052;-61
2022/02/14 04:46:11;;;;;;;8.65;2.97;;;;;;;;;;5094390;28;20445;-61
2022/02/14 04:48:37;;;;;;;7.10;2.30;;;;;;;;;;5107308;28;20056;-61
2022/02/14 04:51:03;;;;;;;5.05;2.72;;;;;;;;;;5107216;28;20043;-61
2022/02/14 04:53:29;;;;;;;4.97;2.72;;;;;;;;;;5101289;28;20052;-62
2022/02/14 04:55:55;;;;;;;11.40;3.25;;;;;;;;;;5087308;28;20487;-61
2022/02/14 04:58:21;;;;;;;6.82;2.78;;;;;;;;;;5087223;28;20055;-61
2022/02/14 05:00:48;;;;;;;7.93;2.78;;;;;;;;;;5087242;28;20131;-61
2022/02/14 05:03:14;;;;;;;13.57;2.80;;;;;;;;;;5086939;28;20041;-62
2022/02/14 05:05:40;;;;;;;9.30;2.92;;;;;;;;;;5087184;28;20036;-61
2022/02/14 05:08:06;;;;;;;8.70;3.10;;;;;;;;;;5086869;28;20075;-61
2022/02/14 05:10:32;;;;;;;9.73;2.70;;;;;;;;;;5086354;28;20044;-61
2022/02/14 05:12:58;;;;;;;6.55;2.67;;;;;;;;;;5086960;28;20048;-61
2022/02/14 05:15:24;;;;;;;6.15;2.58;;;;;;;;;;5094979;28;20032;-61
2022/02/14 05:17:51;;;;;;;7.65;3.08;;;;;;;;;;5105799;28;20075;-61
2022/02/14 05:20:17;;;;;;;4.95;2.60;;;;;;;;;;5106750;28;20503;-62
2022/02/14 05:22:43;;;;;;;4.40;2.50;;;;;;;;;;5106847;28;20127;-61
2022/02/14 05:25:09;;;;;;;8.25;2.58;;;;;;;;;;5106765;28;20048;-62
2022/02/14 05:27:36;;;;;;;8.50;3.05;;;;;;;;;;5093076;28;20093;-62
2022/02/14 05:30:02;;;;;;;10.85;3.42;;;;;;;;;;5098675;28;20047;-62
2022/02/14 05:32:29;;;;;;;5.18;2.33;;;;;;;;;;5106705;28;20040;-63
2022/02/14 05:34:56;;;;;;;9.20;2.47;;;;;;;;;;5107029;28;20097;-62
2022/02/14 05:37:22;;;;;;;7.88;2.85;;;;;;;;;;5100543;28;20044;-61
2022/02/14 05:39:48;;;;;;;4.22;2.30;;;;;;;;;;5086290;28;20072;-61
2022/02/14 05:42:15;;;;;;;8.55;2.20;;;;;;;;;;5086348;28;20079;-63
2022/02/14 05:44:41;;;;;;;6.00;2.35;;;;;;;;;;5085302;28;20518;-62
2022/02/14 05:47:08;;;;;;;5.65;2.25;;;;;;;;;;5101907;28;20048;-61
2022/02/14 05:49:34;;;;;;;10.48;2.83;;;;;;;;;;5086533;28;20043;-62
2022/02/14 05:52:00;;;;;;;6.97;2.63;;;;;;;;;;5085734;28;20123;-63
2022/02/14 05:54:26;;;;;;;4.70;2.70;;;;;;;;;;5086410;28;20043;-61
2022/02/14 05:56:52;;;;;;;6.57;2.70;;;;;;;;;;5086106;28;20130;-61
2022/02/14 05:59:18;;;;;;;7.05;2.40;;;;;;;;;;5086103;28;20594;-62
2022/02/14 06:01:44;;;;;;;8.18;2.50;;;;;;;;;;5086176;28;20055;-62
2022/02/14 06:04:11;;;;;;;5.45;2.30;;;;;;;;;;5095711;28;20051;-62
2022/02/14 06:06:37;;;;;;;6.18;2.40;;;;;;;;;;5105289;28;20534;-63
2022/02/14 06:09:03;;;;;;;5.25;2.28;;;;;;;;;;5086581;28;20045;-61
2022/02/14 06:11:29;;;;;;;10.40;2.83;;;;;;;;;;5085264;28;20067;-61
2022/02/14 06:13:55;;;;;;;19.52;2.92;;;;;;;;;;5085785;28;20097;-61
2022/02/14 06:16:22;;;;;;;8.52;2.85;;;;;;;;;;5085540;28;20044;-61
2022/02/14 06:18:48;;;;;;;7.93;3.00;;;;;;;;;;5085657;28;20070;-62
2022/02/14 06:21:14;;;;;;;8.13;2.53;;;;;;;;;;5083633;28;20060;-61
2022/02/14 06:23:42;;;;;;;8.60;2.63;;;;;;;;;;5085749;28;20048;-60
2022/02/14 06:26:08;;;;;;;7.65;2.75;;;;;;;;;;5087806;28;20044;-61
2022/02/14 06:28:38;;;;;;;10.07;3.30;;;;;;;;;;5103180;28;20115;-61
2022/02/14 06:31:05;;;;;;;5.43;2.20;;;;;;;;;;5105414;28;20051;-61
2022/02/14 06:33:31;;;;;;;5.38;2.22;;;;;;;;;;5105929;28;20119;-61
2022/02/14 06:35:58;;;;;;;11.15;2.78;;;;;;;;;;5105191;28;20052;-61
2022/02/14 06:38:24;;;;;;;6.95;2.20;;;;;;;;;;5089146;28;20074;-61
2022/02/14 06:40:50;;;;;;;7.57;2.70;;;;;;;;;;5084681;28;20110;-61
2022/02/14 06:43:17;;;;;;;6.25;2.13;;;;;;;;;;5083580;28;20068;-61
2022/02/14 06:45:43;;;;;;;6.30;2.60;;;;;;;;;;5084745;28;20443;-61
2022/02/14 06:48:09;;;;;;;4.47;2.40;;;;;;;;;;5084948;28;20060;-61
2022/02/14 06:50:35;;;;;;;12.43;2.88;;;;;;;;;;5087078;28;20044;-61
2022/02/14 06:53:01;;;;;;;5.78;2.25;;;;;;;;;;5080506;28;20552;-61
2022/02/14 06:55:27;;;;;;;6.03;2.00;;;;;;;;;;5087775;28;20136;-63
2022/02/14 06:57:54;;;;;;;3.80;2.20;;;;;;;;;;5079821;28;20092;-61
2022/02/14 07:00:20;;;;;;;8.30;2.58;;;;;;;;;;5080453;28;20113;-61
2022/02/14 07:02:46;;;;;;;3.17;1.95;;;;;;;;;;5078246;28;20127;-61
2022/02/14 07:05:14;;;;;;;6.10;2.15;;;;;;;;;;5064537;28;20052;-61
2022/02/14 07:07:41;;;;;;;5.72;2.28;;;;;;;;;;5093438;28;20089;-61
2022/02/14 07:10:07;;;;;;;6.22;1.98;;;;;;;;;;5081864;28;20103;-61
2022/02/14 07:12:33;;;;;;;8.10;2.08;;;;;;;;;;5084973;28;20100;-61
2022/02/14 07:14:59;;;;;;;5.43;1.80;;;;;;;;;;5084750;28;20048;-62
2022/02/14 07:17:25;;;;;;;6.47;2.10;;;;;;;;;;5084205;28;20181;-62
2022/02/14 07:19:51;;;;;;;7.93;2.75;;;;;;;;;;5084523;28;20071;-62
2022/02/14 07:22:18;;;;;;;7.53;1.85;;;;;;;;;;5092520;28;20516;-63
2022/02/14 07:24:44;;;;;;;6.28;2.00;;;;;;;;;;5097546;28;20058;-62
2022/02/14 07:27:10;;;;;;;5.15;2.38;;;;;;;;;;5085428;28;20465;-62
2022/02/14 07:29:36;;;;;;;5.95;2.47;;;;;;;;;;5084782;28;20040;-62
2022/02/14 07:32:02;;;;;;;8.65;2.20;;;;;;;;;;5079899;28;20131;-63
2022/02/14 07:34:29;;;;;;;9.18;2.60;;;;;;;;;;5084204;28;20044;-63
2022/02/14 07:36:55;;;;;;;6.65;2.25;;;;;;;;;;5083472;28;20052;-62
2022/02/14 07:39:21;;;;;;;3.17;2.13;;;;;;;;;;5084384;28;20048;-62
2022/02/14 07:41:48;;;;;;;7.03;2.00;;;;;;;;;;5084296;28;20127;-62
2022/02/14 07:44:14;;;;;;;5.07;2.40;;;;;;;;;;5096765;28;20056;-63
2022/02/14 07:46:40;;;;;;;6.05;2.20;;;;;;;;;;5101133;28;20051;-62
2022/02/14 07:49:06;;;;;;;4.72;1.88;;;;;;;;;;5084557;28;20049;-61
2022/02/14 07:51:32;;;;;;;5.85;2.03;;;;;;;;;;5083053;28;20491;-63
2022/02/14 07:53:58;;;;;;;4.88;2.10;;;;;;;;;;5084269;28;20075;-63
2022/02/14 07:56:25;;;;;;;8.20;2.22;;;;;;;;;;5085534;28;20108;-62
2022/02/14 07:58:51;;;;;;;4.05;2.63;;;;;;;;;;5084059;28;20124;-61
2022/02/14 08:01:18;;;;;;;6.18;2.13;;;;;;;;;;5082467;28;20064;-62
2022/02/14 08:03:44;;;;;;;8.95;2.15;;;;;;;;;;5091436;28;20445;-63
2022/02/14 08:06:10;;;;;;;4.07;2.42;;;;;;;;;;5080692;28;20055;-62
2022/02/14 08:08:37;;;;;;;3.58;2.00;;;;;;;;;;5070604;28;20040;-62
2022/02/14 08:11:04;;;;;;;4.40;1.90;;;;;;;;;;5066359;28;20504;-62
2022/02/14 08:13:30;;;;;;;4.75;1.98;;;;;;;;;;5070311;28;20104;-63
2022/02/14 08:15:56;;;;;;;8.75;2.30;;;;;;;;;;5062226;28;20037;-62
2022/02/14 08:18:22;;;;;;;6.15;2.53;;;;;;;;;;5081152;28;20100;-61
2022/02/14 08:20:48;;;;;;;4.78;2.30;;;;;;;;;;5068773;28;20071;-62
2022/02/14 08:23:15;;;;;;;5.22;1.80;;;;;;;;;;5075679;28;20122;-62
2022/02/14 08:25:59;;;;;;;6.07;2.38;;;;;;;;;;5091790;28;20106;-62
2022/02/14 08:28:26;;;;;;;6.65;2.65;;;;;;;;;;5072314;28;20144;-62
2022/02/14 08:30:52;;;;;;;4.43;2.17;;;;;;;;;;5071451;28;20051;-61
2022/02/14 08:33:19;;;;;;;7.15;2.20;;;;;;;;;;5076388;28;20081;-63
2022/02/14 08:35:45;;;;;;;5.43;1.77;;;;;;;;;;5075625;28;20048;-60
2022/02/14 08:38:11;;;;;;;6.90;2.53;;;;;;;;;;5078627;28;20037;-61
2022/02/14 08:40:38;;;;;;;6.93;1.98;;;;;;;;;;5081000;28;20075;-60
2022/02/14 08:43:04;;;;;;;7.03;2.10;;;;;;;;;;5077899;28;20056;-61
2022/02/14 08:45:32;;;;;;;5.70;2.20;;;;;;;;;;5079388;28;20041;-59
2022/02/14 08:47:58;;;;;;;8.60;2.72;;;;;;;;;;5075214;28;20500;-62
2022/02/14 08:50:24;;;;;;;5.40;2.00;;;;;;;;;;5077941;28;20041;-61
2022/02/14 08:52:51;;;;;;;5.20;2.20;;;;;;;;;;5079360;28;20048;-61
2022/02/14 08:55:17;;;;;;;8.15;1.98;;;;;;;;;;5075346;28;20048;-62
2022/02/14 08:57:44;;;;;;;7.90;2.47;;;;;;;;;;5079792;28;20050;-61
2022/02/14 09:00:11;;;;;;;4.82;2.08;;;;;;;;;;5076642;28;20072;-62
2022/02/14 09:02:37;;;;;;;4.90;1.90;;;;;;;;;;5095956;28;20079;-61
2022/02/14 09:05:04;;;;;;;9.60;2.25;;;;;;;;;;5082254;28;20072;-61
2022/02/14 09:07:30;;;;;;;5.75;2.88;;;;;;;;;;5078826;28;20096;-63
2022/02/14 09:09:57;;;;;;;6.85;3.00;;;;;;;;;;5078398;28;20041;-64
2022/02/14 09:12:24;;;;;;;5.65;2.72;;;;;;;;;;5082814;28;20044;-71
2022/02/14 09:14:50;;;;;;;6.88;2.75;;;;;;;;;;5081471;28;20408;-71
2022/02/14 09:17:17;;;;;;;7.80;3.17;;;;;;;;;;5074236;28;20051;-68
2022/02/14 09:19:43;;;;;;;7.25;3.58;;;;;;;;;;5081488;28;20033;-69
2022/02/14 09:22:10;;;;;;;5.70;4.03;;;;;;;;;;5084905;28;20033;-70
2022/02/14 09:24:36;;;;;;;6.90;2.75;;;;;;;;;;5079812;28;20080;-70
2022/02/14 09:27:03;;;;;;;6.32;3.42;;;;;;;;;;5083618;28;20041;-65
2022/02/14 09:29:30;;;;;;;7.80;3.53;;;;;;;;;;5080854;28;20051;-70
2022/02/14 09:31:57;;;;;;;6.47;3.90;;;;;;;;;;5078876;28;20123;-72
2022/02/14 09:34:24;;;;;;;5.68;3.55;;;;;;;;;;5075871;28;20048;-72
2022/02/14 09:36:53;;;;;;;6.38;3.85;;;;;;;;;;5091450;28;20075;-68
2022/02/14 09:39:20;;;;;;;7.32;4.25;;;;;;;;;;5102010;28;20041;-64
2022/02/14 09:41:46;;;;;;;7.38;3.90;;;;;;;;;;5079214;28;20044;-76
2022/02/14 09:44:13;;;;;;;6.63;4.50;;;;;;;;;;5082996;28;20149;-77
2022/02/14 09:46:43;;;;;;;6.07;3.75;;;;;;;;;;5081847;28;20048;-69
2022/02/14 09:49:10;;;;;;;6.03;3.65;;;;;;;;;;5068117;28;20040;-68
2022/02/14 09:51:36;;;;;;;8.35;3.67;;;;;;;;;;5101741;28;20094;-70
2022/02/14 09:54:03;;;;;;;7.53;3.05;;;;;;;;;;5085006;28;20137;-62
2022/02/14 09:56:34;;;;;;;8.00;3.55;;;;;;;;;;5088606;28;20115;-63
2022/02/14 09:59:01;;;;;;;12.52;3.40;;;;;;;;;;5084351;28;20071;-69
2022/02/14 10:01:28;;;;;;;6.18;3.15;;;;;;;;;;5086192;28;20049;-63
2022/02/14 10:03:55;;;;;;;6.50;2.80;;;;;;;;;;5088514;28;20056;-64
2022/02/14 10:06:48;;;;;;;7.53;2.60;;;;;;;;;;5081667;28;20059;-61
2022/02/14 10:09:15;;;;;;;9.45;2.70;;;;;;;;;;5079698;28;20295;-67
2022/02/14 10:12:05;;;;;;;6.50;2.25;;;;;;;;;;5083618;28;20052;-68
2022/02/14 10:14:32;;;;;;;5.47;2.58;;;;;;;;;;5079300;28;20627;-63
2022/02/14 10:16:59;;;;;;;7.47;2.80;;;;;;;;;;5087012;28;20052;-63
2022/02/14 10:19:25;;;;;;;13.82;2.95;;;;;;;;;;5082727;28;20048;-72
2022/02/14 10:21:51;;;;;;;5.82;2.63;;;;;;;;;;5087071;28;20104;-63
2022/02/14 10:24:18;;;;;;;7.57;2.53;;;;;;;;;;5082897;28;20067;-64
2022/02/14 10:26:49;;;;;;;5.85;2.67;;;;;;;;;;5085971;28;20045;-66
2022/02/14 10:29:31;;;;;;;7.80;2.08;;;;;;;;;;5083219;28;20104;-67
2022/02/14 10:32:00;;;;;;;8.57;2.60;;;;;;;;;;5094611;28;20052;-68
2022/02/14 10:34:32;;;;;;;4.07;1.83;;;;;;;;;;5079414;28;20036;-65
2022/02/14 10:36:58;;;;;;;6.13;2.08;;;;;;;;;;5083732;28;20052;-65
2022/02/14 10:39:26;;;;;;;4.90;2.13;;;;;;;;;;5084409;28;20123;-70
2022/02/14 10:41:57;;;;;;;9.32;2.22;;;;;;;;;;5094041;28;20044;-67
2022/02/14 10:47:14;;;;;;;5.70;1.73;;;;;;;;;;5084980;28;20052;-68
2022/02/14 10:49:41;;;;;;;5.32;1.83;;;;;;;;;;5076769;28;20068;-65
2022/02/14 10:52:10;;;;;;;2.38;1.27;;;;;;;;;;5078030;28;20047;-65
2022/02/14 10:54:37;;;;;;;7.28;1.23;;;;;;;;;;5074399;28;20063;-67
2022/02/14 10:57:03;;;;;;;5.00;2.03;;;;;;;;;;5084012;28;20072;-66
2022/02/14 10:59:29;;;;;;;3.22;1.30;;;;;;;;;;5086463;28;20044;-65
2022/02/14 11:01:56;;;;;;;5.28;1.33;;;;;;;;;;5080207;28;20112;-64
2022/02/14 11:04:22;;;;;;;7.57;1.60;;;;;;;;;;5080915;28;20094;-64
2022/02/14 11:06:48;;;;;;;6.03;1.85;;;;;;;;;;5080732;28;20102;-64
2022/02/14 11:09:15;;;;;;;6.90;1.65;;;;;;;;;;5083906;28;20159;-64
2022/02/14 11:11:46;;;;;;;6.15;1.58;;;;;;;;;;5075781;28;20087;-64
2022/02/14 11:14:13;;;;;;;11.75;2.03;;;;;;;;;;5089528;28;20170;-64
2022/02/14 11:16:40;;;;;;;4.35;1.60;;;;;;;;;;5081741;28;20128;-64
2022/02/14 11:19:09;;;;;;;3.28;1.55;;;;;;;;;;5085630;28;20044;-68
2022/02/14 11:21:36;;;;;;;4.43;1.63;;;;;;;;;;5083792;28;20467;-66
2022/02/14 11:24:08;;;;;;;6.37;1.70;;;;;;;;;;5074349;28;20184;-69
2022/02/14 11:26:57;;;;;;;6.40;2.67;;;;;;;;;;5092004;28;20048;-65
2022/02/14 11:29:26;;;;;;;12.20;2.20;;;;;;;;;;5078125;28;20044;-67
2022/02/14 11:32:12;;;;;;;5.45;1.65;;;;;;;;;;5080601;28;20056;-63
2022/02/14 11:34:57;;;;;;;9.20;2.78;;;;;;;;;;5067315;28;20049;-70
2022/02/14 11:37:24;;;;;;;4.07;2.05;;;;;;;;;;5068230;28;20036;-69
2022/02/14 11:39:50;;;;;;;7.13;1.88;;;;;;;;;;5068133;28;20040;-64
2022/02/14 11:42:16;;;;;;;6.63;2.08;;;;;;;;;;5091157;28;20053;-68
2022/02/14 11:44:43;;;;;;;7.72;2.05;;;;;;;;;;5069138;28;20041;-63
2022/02/14 11:47:10;;;;;;;8.60;2.42;;;;;;;;;;5063903;28;20579;-63
2022/02/14 11:49:40;;;;;;;5.07;2.23;;;;;;;;;;5069326;28;20033;-62
2022/02/14 11:52:08;;;;;;;6.95;2.22;;;;;;;;;;5066654;28;20303;-62
2022/02/14 11:54:35;;;;;;;;;;;;;;;;;;5067882;28;20100;-63
2022/02/14 11:57:11;;;;;;;11.30;2.33;;;;;;;;;;5087187;28;19920;-63
2022/02/14 11:59:38;;;;;;;5.22;2.10;;;;;;;;;;5083735;28;20045;-64
2022/02/14 12:02:05;;;;;;;9.33;2.30;;;;;;;;;;5088040;28;20055;-62
2022/02/14 12:04:38;;;;;;;4.43;2.25;;;;;;;;;;5080952;28;20053;-62
2022/02/14 12:07:23;;;;;;;5.88;1.90;;;;;;;;;;5080629;28;20048;-62
2022/02/14 12:09:58;;;;;;;6.57;2.05;;;;;;;;;;5073946;28;20045;-63
2022/02/14 12:12:51;;;;;;;4.88;1.90;;;;;;;;;;5079661;28;20053;-63
2022/02/14 12:21:00;;;;;;;4.80;2.28;;;;;;;;;;5076845;28;20052;-63
2022/02/14 12:23:30;;;;;;;4.97;2.20;;;;;;;;;;5081083;28;20048;-63
2022/02/14 12:25:56;;;;;;;6.25;1.88;;;;;;;;;;5077224;28;20132;-63
2022/02/14 12:28:23;;;;;;;4.13;2.08;;;;;;;;;;5073002;28;20094;-63
2022/02/14 12:30:50;;;;;;;6.60;1.98;;;;;;;;;;5078068;28;20039;-63
2022/02/14 12:33:16;;;;;;;4.78;1.63;;;;;;;;;;5072273;28;20052;-63
2022/02/14 12:35:47;;;;;;;7.38;2.17;;;;;;;;;;5079857;28;20065;-63
2022/02/14 12:38:14;;;;;;;5.82;2.38;;;;;;;;;;5094457;28;20049;-63
2022/02/14 12:40:46;;;;;;;4.85;2.08;;;;;;;;;;5080937;28;20041;-64
2022/02/14 12:43:12;;;;;;;3.83;1.80;;;;;;;;;;5072394;28;20057;-63
2022/02/14 12:45:39;;;;;;;6.25;2.58;;;;;;;;;;5079195;28;20087;-63
2022/02/14 12:48:05;;;;;;;6.85;1.95;;;;;;;;;;5071453;28;20090;-64
2022/02/14 12:50:37;;;;;;;8.88;2.75;;;;;;;;;;5080606;28;20049;-63
2022/02/14 12:53:10;;;;;;;5.30;1.73;;;;;;;;;;5077238;28;20052;-63
2022/02/14 12:55:37;;;;;;;7.93;2.22;;;;;;;;;;5080492;28;20056;-63
2022/02/14 12:58:03;;;;;;;6.05;1.65;;;;;;;;;;5081612;28;20068;-64
2022/02/14 13:00:36;;;;;;;10.50;2.15;;;;;;;;;;5081111;28;20050;-62
2022/02/14 13:03:07;;;;;;;5.53;2.08;;;;;;;;;;5085174;28;20048;-63
2022/02/14 13:05:34;;;;;;;8.43;1.95;;;;;;;;;;5083972;28;20199;-63
2022/02/14 13:08:04;;;;;;;4.60;1.77;;;;;;;;;;5083887;28;20408;-63
2022/02/14 13:10:30;;;;;;;6.80;1.38;;;;;;;;;;5082673;28;20041;-63
2022/02/14 13:13:04;;;;;;;5.05;1.70;;;;;;;;;;5085344;28;20424;-63
2022/02/14 13:15:30;;;;;;;6.00;1.95;;;;;;;;;;5075086;28;20049;-63
2022/02/14 13:17:57;;;;;;;10.80;1.95;;;;;;;;;;5077722;28;20037;-63
2022/02/14 13:20:23;;;;;;;3.38;1.50;;;;;;;;;;5079136;28;20056;-63
2022/02/14 13:22:49;;;;;;;4.93;1.65;;;;;;;;;;5093571;28;20075;-63
2022/02/14 13:25:15;;;;;;;7.60;2.20;;;;;;;;;;5080785;28;20056;-63
2022/02/14 13:27:42;;;;;;;8.77;2.50;;;;;;;;;;5078417;28;20104;-68
2022/02/14 13:30:11;;;;;;;4.85;1.20;;;;;;;;;;5082704;28;20047;-70
2022/02/14 13:32:38;;;;;;;3.58;1.23;;;;;;;;;;5084115;28;20120;-69
2022/02/14 13:35:08;;;;;;;4.55;2.78;;;;;;;;;;5070165;28;20075;-66
2022/02/14 13:37:42;;;;;;;5.90;1.25;;;;;;;;;;5084793;28;20041;-71
2022/02/14 13:40:38;;;;;;;4.20;1.20;;;;;;;;;;5075931;28;20044;-63
2022/02/14 13:43:16;;;;;;;6.50;1.25;;;;;;;;;;5072598;28;20056;-62
2022/02/14 13:45:44;;;;;;;5.13;1.20;;;;;;;;;;5073371;28;20079;-63
2022/02/14 13:48:17;;;;;;;5.43;1.25;;;;;;;;;;5080688;28;20040;-69
2022/02/14 13:50:44;;;;;;;3.88;1.08;;;;;;;;;;5095413;28;20041;-63
2022/02/14 13:53:29;;;;;;;4.45;1.13;;;;;;;;;;5078291;28;20040;-65
2022/02/14 13:56:06;;;;;;;4.07;1.10;;;;;;;;;;5079176;28;20036;-64
2022/02/14 13:58:33;;;;;;;3.47;1.10;;;;;;;;;;5077572;28;20045;-69
2022/02/14 14:00:59;;;;;;;5.15;0.93;;;;;;;;;;5073083;28;20092;-65
2022/02/14 14:03:26;;;;;;;4.53;0.73;;;;;;;;;;5077746;28;20052;-65
2022/02/14 14:05:53;;;;;;;4.72;0.98;;;;;;;;;;5080198;28;20100;-64
2022/02/14 14:08:33;;;;;;;5.38;1.30;;;;;;;;;;5079280;28;20036;-64
2022/02/14 14:10:59;;;;;;;5.43;1.15;;;;;;;;;;5077950;28;20060;-65
2022/02/14 14:13:37;;;;;;;4.88;1.40;;;;;;;;;;5094592;28;20104;-66
2022/02/14 14:16:03;;;;;;;4.38;1.10;;;;;;;;;;5072533;28;20123;-66
2022/02/14 14:18:29;;;;;;;4.95;1.30;;;;;;;;;;5075610;28;20038;-65
2022/02/14 14:21:03;;;;;;;5.35;0.85;;;;;;;;;;5078683;28;20037;-66
2022/02/14 14:23:29;;;;;;;7.25;1.52;;;;;;;;;;5077786;28;20093;-67
2022/02/14 14:25:55;;;;;;;5.75;1.40;;;;;;;;;;5072692;28;20119;-65
2022/02/14 14:28:21;;;;;;;3.60;1.50;;;;;;;;;;5077633;28;20092;-65
2022/02/14 14:30:47;;;;;;;3.13;1.15;;;;;;;;;;5080173;28;20407;-66
2022/02/14 14:33:14;;;;;;;2.85;0.82;;;;;;;;;;5078751;28;20143;-67
2022/02/14 14:35:40;;;;;;;4.43;1.20;;;;;;;;;;5080954;28;20037;-60
2022/02/14 14:38:07;;;;;;;7.35;1.00;;;;;;;;;;5081423;28;20051;-62
2022/02/14 14:40:33;;;;;;;4.30;1.15;;;;;;;;;;5081022;28;20048;-61
2022/02/14 14:42:59;;;;;;;6.07;1.23;;;;;;;;;;5094516;28;20071;-63
2022/02/14 14:45:26;;;;;;;3.65;1.02;;;;;;;;;;5077139;28;20055;-63
2022/02/14 14:47:53;;;;;;;3.33;0.90;;;;;;;;;;5075405;28;20503;-68
2022/02/14 14:50:19;;;;;;;3.90;1.10;;;;;;;;;;5076842;28;20041;-66
2022/02/14 14:52:45;;;;;;;2.65;0.75;;;;;;;;;;5077920;28;20064;-67
2022/02/14 14:55:11;;;;;;;5.25;1.17;;;;;;;;;;5071348;28;20076;-70